createdAt,value
2017-10-11T00:00:21.150Z,14.69
2017-10-11T00:01:29.992Z,14.7
2017-10-11T00:02:38.836Z,14.72
2017-10-11T00:03:47.671Z,14.68
2017-10-11T00:04:56.515Z,14.69
2017-10-11T00:06:05.349Z,14.72
2017-10-11T00:07:14.189Z,14.72
2017-10-11T00:08:23.028Z,14.75
2017-10-11T00:09:31.869Z,14.72
2017-10-11T00:10:40.706Z,14.8
2017-10-11T00:11:49.552Z,14.75
2017-10-11T00:12:58.390Z,14.69
2017-10-11T00:14:07.232Z,14.77
2017-10-11T00:15:16.077Z,14.72
2017-10-11T00:16:24.915Z,14.72
2017-10-11T00:17:33.751Z,14.73
2017-10-11T00:18:42.610Z,14.73
2017-10-11T00:19:51.435Z,14.69
2017-10-11T00:21:00.275Z,14.65
2017-10-11T00:22:09.118Z,14.75
2017-10-11T00:23:17.954Z,14.68
2017-10-11T00:24:26.792Z,14.72
2017-10-11T00:25:35.631Z,14.75
2017-10-11T00:26:44.800Z,14.7
2017-10-11T00:27:53.642Z,14.8
2017-10-11T00:29:02.484Z,14.81
2017-10-11T00:30:11.322Z,14.69
2017-10-11T00:31:20.501Z,14.69
2017-10-11T00:32:29.340Z,14.81
2017-10-11T00:33:38.180Z,14.73
2017-10-11T00:34:47.029Z,14.7
2017-10-11T00:35:55.853Z,14.73
2017-10-11T00:37:04.695Z,14.77
2017-10-11T00:38:13.530Z,14.8
2017-10-11T00:39:22.367Z,14.84
2017-10-11T00:40:31.208Z,14.75
2017-10-11T00:41:40.046Z,14.72
2017-10-11T00:42:48.888Z,14.78
2017-10-11T00:43:57.728Z,14.83
2017-10-11T00:45:06.566Z,14.77
2017-10-11T00:46:15.405Z,14.78
2017-10-11T00:47:24.243Z,14.7
2017-10-11T00:48:33.077Z,14.69
2017-10-11T00:49:41.923Z,14.83
2017-10-11T00:50:50.761Z,14.81
2017-10-11T00:51:59.600Z,14.78
2017-10-11T00:53:08.439Z,14.8
2017-10-11T00:54:17.276Z,14.8
2017-10-11T00:55:26.112Z,14.81
2017-10-11T00:56:34.958Z,14.86
2017-10-11T00:57:43.798Z,14.78
2017-10-11T00:58:52.634Z,14.77
2017-10-11T01:00:01.472Z,14.81
2017-10-11T01:01:10.308Z,14.81
2017-10-11T01:02:19.152Z,14.89
2017-10-11T01:03:27.986Z,14.83
2017-10-11T01:04:36.827Z,14.83
2017-10-11T01:05:45.665Z,14.83
2017-10-11T01:06:54.512Z,14.78
2017-10-11T01:08:03.681Z,14.83
2017-10-11T01:09:12.515Z,14.77
2017-10-11T01:10:21.355Z,14.89
2017-10-11T01:11:30.216Z,14.8
2017-10-11T01:12:39.042Z,14.88
2017-10-11T01:13:47.883Z,14.8
2017-10-11T01:14:56.724Z,14.83
2017-10-11T01:16:05.565Z,14.78
2017-10-11T01:17:14.406Z,14.86
2017-10-11T01:18:23.243Z,14.88
2017-10-11T01:19:32.085Z,14.81
2017-10-11T01:20:40.924Z,14.78
2017-10-11T01:21:49.760Z,14.86
2017-10-11T01:22:58.601Z,14.78
2017-10-11T01:24:07.441Z,14.78
2017-10-11T01:25:16.281Z,14.84
2017-10-11T01:26:25.119Z,14.84
2017-10-11T01:27:33.957Z,14.88
2017-10-11T01:28:42.798Z,14.78
2017-10-11T01:29:51.633Z,14.92
2017-10-11T01:31:00.472Z,14.98
2017-10-11T01:32:09.316Z,14.95
2017-10-11T01:33:18.154Z,14.92
2017-10-11T01:34:26.994Z,14.96
2017-10-11T01:35:36.169Z,14.96
2017-10-11T01:36:45.006Z,14.95
2017-10-11T01:37:54.191Z,14.92
2017-10-11T01:39:03.026Z,14.92
2017-10-11T01:40:11.865Z,14.96
2017-10-11T01:41:20.709Z,14.94
2017-10-11T01:42:29.547Z,14.94
2017-10-11T01:43:38.382Z,14.94
2017-10-11T01:44:47.226Z,14.89
2017-10-11T01:45:56.067Z,14.92
2017-10-11T01:47:04.907Z,14.94
2017-10-11T01:48:13.748Z,14.92
2017-10-11T01:49:22.582Z,14.95
2017-10-11T01:50:31.753Z,14.92
2017-10-11T01:51:40.601Z,14.92
2017-10-11T01:52:49.442Z,14.81
2017-10-11T01:53:58.280Z,14.78
2017-10-11T01:55:07.449Z,14.89
2017-10-11T01:56:16.283Z,14.83
2017-10-11T01:57:25.137Z,14.88
2017-10-11T01:58:33.963Z,14.8
2017-10-11T01:59:42.807Z,14.99
2017-10-11T02:00:51.641Z,14.91
2017-10-11T02:02:00.484Z,14.94
2017-10-11T02:03:09.317Z,14.89
2017-10-11T02:04:18.503Z,14.94
2017-10-11T02:05:27.338Z,14.96
2017-10-11T02:06:36.179Z,14.88
2017-10-11T02:07:45.021Z,14.96
2017-10-11T02:08:53.857Z,14.95
2017-10-11T02:10:02.694Z,14.95
2017-10-11T02:11:11.530Z,14.91
2017-10-11T02:12:20.713Z,14.94
2017-10-11T02:13:29.892Z,14.96
2017-10-11T02:14:38.747Z,14.91
2017-10-11T02:15:47.570Z,14.95
2017-10-11T02:16:56.407Z,14.92
2017-10-11T02:18:05.583Z,14.94
2017-10-11T02:19:14.424Z,14.92
2017-10-11T02:20:23.265Z,14.92
2017-10-11T02:21:32.102Z,14.96
2017-10-11T02:22:40.944Z,14.92
2017-10-11T02:23:49.784Z,14.91
2017-10-11T02:24:58.622Z,14.96
2017-10-11T02:26:07.468Z,14.94
2017-10-11T02:27:16.310Z,14.96
2017-10-11T02:28:25.482Z,15.02
2017-10-11T02:29:34.320Z,14.96
2017-10-11T02:30:43.165Z,15.03
2017-10-11T02:31:52.002Z,14.98
2017-10-11T02:33:00.841Z,14.99
2017-10-11T02:34:09.681Z,14.96
2017-10-11T02:35:18.527Z,14.95
2017-10-11T02:36:27.363Z,15.02
2017-10-11T02:37:36.205Z,15.02
2017-10-11T02:38:45.047Z,14.98
2017-10-11T02:39:53.881Z,15.01
2017-10-11T02:41:02.726Z,14.99
2017-10-11T02:42:11.563Z,14.99
2017-10-11T02:43:20.400Z,14.98
2017-10-11T02:44:29.241Z,14.98
2017-10-11T02:45:38.072Z,14.96
2017-10-11T02:46:46.914Z,14.92
2017-10-11T02:47:55.757Z,15.01
2017-10-11T02:49:04.596Z,14.96
2017-10-11T02:50:13.429Z,14.95
2017-10-11T02:51:22.267Z,14.96
2017-10-11T02:52:31.110Z,14.98
2017-10-11T02:53:39.949Z,14.98
2017-10-11T02:54:48.795Z,14.92
2017-10-11T02:55:57.625Z,15.02
2017-10-11T02:57:06.468Z,14.99
2017-10-11T02:58:15.305Z,14.94
2017-10-11T02:59:24.146Z,14.94
2017-10-11T03:00:32.978Z,14.96
2017-10-11T03:01:41.820Z,14.98
2017-10-11T03:02:50.658Z,14.89
2017-10-11T03:03:59.500Z,14.96
2017-10-11T03:05:08.681Z,14.94
2017-10-11T03:06:17.533Z,14.98
2017-10-11T03:07:26.356Z,15.01
2017-10-11T03:08:35.539Z,14.95
2017-10-11T03:09:44.386Z,14.98
2017-10-11T03:10:53.219Z,14.94
2017-10-11T03:12:02.053Z,14.98
2017-10-11T03:13:10.895Z,14.96
2017-10-11T03:14:19.732Z,14.92
2017-10-11T03:15:28.574Z,14.96
2017-10-11T03:16:37.413Z,14.96
2017-10-11T03:17:46.251Z,14.98
2017-10-11T03:18:55.094Z,14.96
2017-10-11T03:20:03.938Z,14.98
2017-10-11T03:21:12.774Z,14.92
2017-10-11T03:22:21.618Z,15.01
2017-10-11T03:23:30.460Z,14.98
2017-10-11T03:24:39.290Z,14.92
2017-10-11T03:25:48.133Z,14.92
2017-10-11T03:26:56.978Z,14.95
2017-10-11T03:28:05.804Z,14.95
2017-10-11T03:29:14.644Z,14.83
2017-10-11T03:30:23.487Z,14.98
2017-10-11T03:31:32.317Z,14.89
2017-10-11T03:32:41.163Z,14.94
2017-10-11T03:33:50.000Z,14.95
2017-10-11T03:34:59.168Z,14.94
2017-10-11T03:36:08.004Z,14.83
2017-10-11T03:37:16.847Z,14.91
2017-10-11T03:38:25.687Z,14.91
2017-10-11T03:39:34.537Z,14.91
2017-10-11T03:40:44.057Z,14.89
2017-10-11T03:41:52.894Z,14.86
2017-10-11T03:43:01.739Z,14.84
2017-10-11T03:44:10.574Z,14.81
2017-10-11T03:45:19.413Z,14.8
2017-10-11T03:46:28.249Z,14.84
2017-10-11T03:47:37.079Z,14.84
2017-10-11T03:48:45.917Z,14.81
2017-10-11T03:49:54.750Z,14.91
2017-10-11T03:51:03.584Z,14.78
2017-10-11T03:52:12.415Z,14.92
2017-10-11T03:53:21.248Z,14.81
2017-10-11T03:54:30.085Z,14.8
2017-10-11T03:55:38.924Z,14.81
2017-10-11T03:56:47.752Z,14.94
2017-10-11T03:57:56.587Z,14.98
2017-10-11T03:59:05.416Z,14.92
2017-10-11T04:00:14.259Z,14.92
2017-10-11T04:01:23.096Z,14.89
2017-10-11T04:02:31.925Z,14.92
2017-10-11T04:03:40.764Z,14.96
2017-10-11T04:04:49.930Z,14.98
2017-10-11T04:05:58.771Z,14.96
2017-10-11T04:07:07.601Z,14.94
2017-10-11T04:08:16.436Z,15.02
2017-10-11T04:09:25.272Z,14.98
2017-10-11T04:10:34.106Z,14.99
2017-10-11T04:11:42.943Z,14.96
2017-10-11T04:12:51.775Z,14.99
2017-10-11T04:14:00.611Z,14.99
2017-10-11T04:15:09.442Z,15.01
2017-10-11T04:16:18.277Z,14.98
2017-10-11T04:17:27.114Z,14.99
2017-10-11T04:18:35.950Z,14.98
2017-10-11T04:19:44.783Z,15.02
2017-10-11T04:20:53.616Z,14.94
2017-10-11T04:22:02.453Z,14.96
2017-10-11T04:23:11.285Z,14.99
2017-10-11T04:24:20.115Z,15.01
2017-10-11T04:25:28.950Z,15.02
2017-10-11T04:26:37.781Z,15.07
2017-10-11T04:27:46.615Z,14.94
2017-10-11T04:28:55.447Z,14.96
2017-10-11T04:30:04.287Z,14.95
2017-10-11T04:31:13.124Z,14.98
2017-10-11T04:32:21.961Z,15.01
2017-10-11T04:33:30.788Z,15.01
2017-10-11T04:34:39.623Z,15.02
2017-10-11T04:35:48.457Z,14.98
2017-10-11T04:36:57.292Z,15.02
2017-10-11T04:38:06.464Z,14.98
2017-10-11T04:39:15.298Z,15.02
2017-10-11T04:40:24.131Z,14.99
2017-10-11T04:41:32.978Z,15.06
2017-10-11T04:42:42.141Z,15.02
2017-10-11T04:43:50.981Z,14.94
2017-10-11T04:45:00.149Z,14.99
2017-10-11T04:46:08.989Z,14.98
2017-10-11T04:47:17.816Z,14.99
2017-10-11T04:48:26.657Z,14.98
2017-10-11T04:49:35.494Z,14.95
2017-10-11T04:50:44.663Z,15.02
2017-10-11T04:51:53.495Z,15.07
2017-10-11T04:53:02.333Z,14.94
2017-10-11T04:54:11.168Z,15.07
2017-10-11T04:55:20.004Z,15.06
2017-10-11T04:56:28.843Z,14.92
2017-10-11T04:57:37.683Z,14.99
2017-10-11T04:58:46.503Z,14.89
2017-10-11T04:59:55.338Z,14.99
2017-10-11T05:01:04.175Z,14.99
2017-10-11T05:02:13.007Z,14.98
2017-10-11T05:03:22.177Z,15.06
2017-10-11T05:04:31.020Z,15.03
2017-10-11T05:05:39.843Z,14.94
2017-10-11T05:06:48.676Z,14.98
2017-10-11T05:07:57.514Z,14.98
2017-10-11T05:09:06.345Z,14.98
2017-10-11T05:10:15.177Z,15.02
2017-10-11T05:11:24.015Z,15.02
2017-10-11T05:12:32.844Z,15.03
2017-10-11T05:13:41.679Z,15.02
2017-10-11T05:14:50.513Z,14.99
2017-10-11T05:15:59.346Z,14.99
2017-10-11T05:17:08.175Z,14.99
2017-10-11T05:18:17.007Z,14.96
2017-10-11T05:19:25.843Z,14.94
2017-10-11T05:20:34.680Z,14.98
2017-10-11T05:21:43.515Z,15.02
2017-10-11T05:22:52.345Z,14.91
2017-10-11T05:24:01.178Z,14.92
2017-10-11T05:25:10.066Z,14.96
2017-10-11T05:26:18.900Z,14.96
2017-10-11T05:27:27.736Z,14.98
2017-10-11T05:28:36.567Z,14.96
2017-10-11T05:29:45.401Z,14.98
2017-10-11T05:30:54.236Z,15.01
2017-10-11T05:32:03.072Z,14.92
2017-10-11T05:33:11.910Z,14.98
2017-10-11T05:34:20.743Z,14.99
2017-10-11T05:35:29.579Z,14.96
2017-10-11T05:36:38.408Z,14.92
2017-10-11T05:37:47.244Z,14.98
2017-10-11T05:38:56.079Z,14.91
2017-10-11T05:40:04.913Z,14.98
2017-10-11T05:41:14.084Z,14.94
2017-10-11T05:42:22.917Z,14.98
2017-10-11T05:43:31.750Z,14.99
2017-10-11T05:44:40.584Z,14.94
2017-10-11T05:45:49.420Z,14.98
2017-10-11T05:46:58.592Z,14.92
2017-10-11T05:48:07.418Z,14.94
2017-10-11T05:49:16.258Z,14.96
2017-10-11T05:50:25.091Z,14.95
2017-10-11T05:51:33.929Z,14.98
2017-10-11T05:52:42.767Z,14.95
2017-10-11T05:53:51.596Z,14.94
2017-10-11T05:55:00.427Z,14.99
2017-10-11T05:56:09.263Z,14.98
2017-10-11T05:57:18.094Z,14.98
2017-10-11T05:58:26.927Z,14.98
2017-10-11T05:59:35.769Z,15.01
2017-10-11T06:00:44.610Z,14.95
2017-10-11T06:01:53.776Z,14.99
2017-10-11T06:03:02.616Z,15.01
2017-10-11T06:04:11.446Z,14.99
2017-10-11T06:05:20.286Z,14.99
2017-10-11T06:06:29.121Z,14.99
2017-10-11T06:07:37.955Z,14.99
2017-10-11T06:08:46.793Z,15.06
2017-10-11T06:09:55.626Z,14.99
2017-10-11T06:11:04.465Z,15.03
2017-10-11T06:12:13.296Z,14.95
2017-10-11T06:13:22.133Z,15.02
2017-10-11T06:14:30.968Z,14.99
2017-10-11T06:15:40.136Z,15.06
2017-10-11T06:16:48.977Z,15.01
2017-10-11T06:17:57.807Z,15.03
2017-10-11T06:19:06.643Z,14.98
2017-10-11T06:20:15.474Z,15.01
2017-10-11T06:21:24.682Z,15.07
2017-10-11T06:22:33.517Z,15.01
2017-10-11T06:23:42.348Z,15.03
2017-10-11T06:24:51.182Z,15.09
2017-10-11T06:26:00.013Z,15.09
2017-10-11T06:27:08.847Z,15.1
2017-10-11T06:28:17.686Z,14.99
2017-10-11T06:29:26.524Z,15.01
2017-10-11T06:30:35.356Z,15.09
2017-10-11T06:31:44.189Z,15.02
2017-10-11T06:32:53.023Z,15.09
2017-10-11T06:34:01.857Z,15.17
2017-10-11T06:35:11.030Z,15.1
2017-10-11T06:36:19.904Z,15.11
2017-10-11T06:37:28.693Z,15.13
2017-10-11T06:38:37.866Z,15.2
2017-10-11T06:39:46.705Z,15.16
2017-10-11T06:40:55.541Z,15.17
2017-10-11T06:42:04.376Z,15.2
2017-10-11T06:43:13.209Z,15.17
2017-10-11T06:44:22.040Z,15.19
2017-10-11T06:45:30.880Z,15.19
2017-10-11T06:46:39.719Z,15.19
2017-10-11T06:47:48.882Z,15.27
2017-10-11T06:48:57.722Z,15.23
2017-10-11T06:50:06.548Z,15.2
2017-10-11T06:51:15.387Z,15.21
2017-10-11T06:52:24.228Z,15.17
2017-10-11T06:53:33.058Z,15.25
2017-10-11T06:54:41.896Z,15.2
2017-10-11T06:55:50.726Z,15.23
2017-10-11T06:56:59.569Z,15.2
2017-10-11T06:58:08.404Z,15.29
2017-10-11T06:59:17.239Z,15.36
2017-10-11T07:00:26.069Z,15.36
2017-10-11T07:01:34.903Z,15.32
2017-10-11T07:02:43.740Z,15.38
2017-10-11T07:03:52.570Z,15.34
2017-10-11T07:05:01.406Z,15.34
2017-10-11T07:06:10.237Z,15.35
2017-10-11T07:07:19.073Z,15.39
2017-10-11T07:08:27.912Z,15.41
2017-10-11T07:09:36.743Z,15.47
2017-10-11T07:10:45.578Z,15.43
2017-10-11T07:11:54.411Z,15.41
2017-10-11T07:13:03.248Z,15.43
2017-10-11T07:14:12.082Z,15.43
2017-10-11T07:15:20.922Z,15.39
2017-10-11T07:16:29.761Z,15.36
2017-10-11T07:17:38.595Z,15.46
2017-10-11T07:18:47.432Z,15.34
2017-10-11T07:19:56.264Z,15.46
2017-10-11T07:21:05.101Z,15.39
2017-10-11T07:22:13.938Z,15.44
2017-10-11T07:23:22.768Z,15.47
2017-10-11T07:24:31.608Z,15.46
2017-10-11T07:25:40.438Z,15.44
2017-10-11T07:26:49.278Z,15.47
2017-10-11T07:27:58.107Z,15.46
2017-10-11T07:29:06.947Z,15.38
2017-10-11T07:30:15.783Z,15.51
2017-10-11T07:31:24.617Z,15.51
2017-10-11T07:32:33.450Z,15.49
2017-10-11T07:33:42.282Z,15.44
2017-10-11T07:34:51.116Z,15.41
2017-10-11T07:35:59.951Z,15.47
2017-10-11T07:37:08.788Z,15.41
2017-10-11T07:38:17.623Z,15.47
2017-10-11T07:39:26.460Z,15.44
2017-10-11T07:40:35.293Z,15.47
2017-10-11T07:41:44.127Z,15.47
2017-10-11T07:42:52.963Z,15.47
2017-10-11T07:44:02.135Z,15.46
2017-10-11T07:45:10.975Z,15.59
2017-10-11T07:46:19.816Z,15.59
2017-10-11T07:47:28.648Z,15.59
2017-10-11T07:48:37.818Z,15.59
2017-10-11T07:49:46.652Z,15.71
2017-10-11T07:50:55.487Z,15.71
2017-10-11T07:52:04.323Z,15.69
2017-10-11T07:53:13.157Z,15.75
2017-10-11T07:54:22.012Z,15.74
2017-10-11T07:55:30.825Z,15.76
2017-10-11T07:56:39.660Z,15.87
2017-10-11T07:57:48.499Z,15.76
2017-10-11T07:58:57.330Z,15.87
2017-10-11T08:00:06.167Z,15.74
2017-10-11T08:01:15.337Z,15.8
2017-10-11T08:02:24.168Z,15.9
2017-10-11T08:03:33.004Z,15.92
2017-10-11T08:04:41.848Z,15.84
2017-10-11T08:05:50.681Z,15.82
2017-10-11T08:06:59.849Z,15.89
2017-10-11T08:08:08.688Z,15.92
2017-10-11T08:09:17.518Z,15.89
2017-10-11T08:10:26.357Z,15.9
2017-10-11T08:11:35.190Z,15.83
2017-10-11T08:12:44.023Z,15.86
2017-10-11T08:13:52.858Z,15.89
2017-10-11T08:15:01.691Z,15.86
2017-10-11T08:16:10.521Z,15.84
2017-10-11T08:17:19.362Z,15.86
2017-10-11T08:18:28.196Z,15.9
2017-10-11T08:19:37.029Z,15.87
2017-10-11T08:20:45.860Z,15.94
2017-10-11T08:21:54.701Z,16.01
2017-10-11T08:23:03.532Z,15.86
2017-10-11T08:24:12.374Z,16.02
2017-10-11T08:25:21.207Z,16
2017-10-11T08:26:30.713Z,16.05
2017-10-11T08:27:39.546Z,16.04
2017-10-11T08:28:48.720Z,16
2017-10-11T08:29:57.560Z,16.02
2017-10-11T08:31:06.406Z,16.01
2017-10-11T08:32:15.242Z,16.05
2017-10-11T08:33:24.077Z,16.05
2017-10-11T08:34:33.256Z,16.05
2017-10-11T08:35:42.091Z,15.96
2017-10-11T08:36:50.925Z,16.01
2017-10-11T08:37:59.761Z,16.08
2017-10-11T08:39:08.596Z,16.04
2017-10-11T08:40:17.438Z,16.05
2017-10-11T08:41:26.270Z,16.05
2017-10-11T08:42:35.107Z,16.11
2017-10-11T08:43:43.946Z,16.2
2017-10-11T08:44:52.779Z,16.14
2017-10-11T08:46:01.616Z,16.14
2017-10-11T08:47:10.455Z,16.17
2017-10-11T08:48:19.286Z,16.25
2017-10-11T08:49:28.122Z,16.31
2017-10-11T08:50:36.960Z,16.35
2017-10-11T08:51:45.795Z,16.33
2017-10-11T08:52:54.630Z,16.38
2017-10-11T08:54:03.464Z,16.42
2017-10-11T08:55:12.300Z,16.46
2017-10-11T08:56:21.138Z,16.52
2017-10-11T08:57:29.972Z,16.49
2017-10-11T08:58:38.805Z,16.52
2017-10-11T08:59:47.639Z,16.56
2017-10-11T09:00:56.476Z,16.49
2017-10-11T09:02:05.322Z,16.45
2017-10-11T09:03:14.153Z,16.43
2017-10-11T09:04:22.985Z,16.52
2017-10-11T09:05:32.166Z,16.42
2017-10-11T09:06:41.000Z,16.45
2017-10-11T09:07:49.833Z,16.48
2017-10-11T09:08:58.671Z,16.49
2017-10-11T09:10:07.503Z,16.56
2017-10-11T09:11:16.336Z,16.52
2017-10-11T09:12:25.516Z,16.57
2017-10-11T09:13:34.353Z,16.5
2017-10-11T09:14:43.192Z,16.52
2017-10-11T09:15:52.021Z,16.57
2017-10-11T09:17:00.852Z,16.52
2017-10-11T09:18:09.691Z,16.49
2017-10-11T09:19:18.530Z,16.53
2017-10-11T09:20:27.363Z,16.56
2017-10-11T09:21:36.198Z,16.56
2017-10-11T09:22:45.036Z,16.52
2017-10-11T09:23:53.869Z,16.45
2017-10-11T09:25:02.703Z,16.58
2017-10-11T09:26:11.543Z,16.52
2017-10-11T09:27:20.378Z,16.57
2017-10-11T09:28:29.212Z,16.56
2017-10-11T09:29:38.051Z,16.6
2017-10-11T09:30:46.888Z,16.61
2017-10-11T09:31:55.728Z,16.61
2017-10-11T09:33:04.563Z,16.68
2017-10-11T09:34:13.401Z,16.67
2017-10-11T09:35:22.240Z,16.63
2017-10-11T09:36:31.075Z,16.66
2017-10-11T09:37:39.910Z,16.66
2017-10-11T09:38:48.747Z,16.78
2017-10-11T09:39:57.584Z,16.71
2017-10-11T09:41:06.757Z,16.78
2017-10-11T09:42:15.595Z,16.79
2017-10-11T09:43:24.433Z,16.81
2017-10-11T09:44:33.272Z,16.81
2017-10-11T09:45:42.438Z,16.83
2017-10-11T09:46:51.273Z,16.89
2017-10-11T09:48:00.114Z,16.89
2017-10-11T09:49:08.950Z,16.93
2017-10-11T09:50:17.785Z,16.97
2017-10-11T09:51:26.624Z,16.86
2017-10-11T09:52:35.459Z,16.83
2017-10-11T09:53:44.627Z,16.88
2017-10-11T09:54:53.841Z,16.86
2017-10-11T09:56:02.673Z,16.88
2017-10-11T09:57:11.510Z,16.88
2017-10-11T09:58:20.345Z,16.91
2017-10-11T09:59:29.190Z,16.85
2017-10-11T10:00:38.015Z,16.86
2017-10-11T10:01:46.856Z,16.85
2017-10-11T10:02:55.700Z,16.89
2017-10-11T10:04:04.527Z,16.85
2017-10-11T10:05:13.372Z,16.98
2017-10-11T10:06:22.200Z,16.93
2017-10-11T10:07:31.036Z,16.88
2017-10-11T10:08:39.875Z,16.88
2017-10-11T10:09:48.711Z,16.89
2017-10-11T10:10:57.542Z,16.91
2017-10-11T10:12:06.379Z,16.94
2017-10-11T10:13:15.215Z,16.93
2017-10-11T10:14:24.054Z,16.91
2017-10-11T10:15:32.898Z,16.98
2017-10-11T10:16:41.729Z,16.97
2017-10-11T10:17:50.560Z,16.86
2017-10-11T10:18:59.401Z,16.79
2017-10-11T10:20:08.240Z,16.78
2017-10-11T10:21:17.079Z,16.73
2017-10-11T10:22:25.916Z,16.75
2017-10-11T10:23:34.744Z,16.66
2017-10-11T10:24:43.583Z,16.63
2017-10-11T10:25:52.420Z,16.66
2017-10-11T10:27:01.262Z,16.6
2017-10-11T10:28:10.093Z,16.56
2017-10-11T10:29:18.934Z,16.5
2017-10-11T10:30:27.764Z,16.52
2017-10-11T10:31:36.603Z,16.46
2017-10-11T10:32:45.437Z,16.46
2017-10-11T10:33:54.615Z,16.48
2017-10-11T10:35:03.449Z,16.48
2017-10-11T10:36:12.285Z,16.5
2017-10-11T10:37:21.121Z,16.5
2017-10-11T10:38:30.302Z,16.58
2017-10-11T10:39:39.138Z,16.53
2017-10-11T10:40:47.974Z,16.48
2017-10-11T10:41:56.807Z,16.45
2017-10-11T10:43:05.644Z,16.56
2017-10-11T10:44:14.478Z,16.56
2017-10-11T10:45:23.312Z,16.57
2017-10-11T10:46:32.149Z,16.61
2017-10-11T10:47:40.982Z,16.56
2017-10-11T10:48:49.824Z,16.6
2017-10-11T10:49:58.658Z,16.53
2017-10-11T10:51:07.502Z,16.53
2017-10-11T10:52:16.334Z,16.5
2017-10-11T10:53:25.171Z,16.53
2017-10-11T10:54:34.003Z,16.5
2017-10-11T10:55:42.844Z,16.41
2017-10-11T10:56:52.019Z,16.39
2017-10-11T10:58:00.859Z,16.33
2017-10-11T10:59:09.691Z,16.2
2017-10-11T11:00:18.524Z,16.17
2017-10-11T11:01:27.361Z,16.08
2017-10-11T11:02:36.201Z,16.15
2017-10-11T11:03:45.036Z,16.09
2017-10-11T11:04:53.872Z,16.04
2017-10-11T11:06:02.707Z,16
2017-10-11T11:07:11.546Z,15.87
2017-10-11T11:08:20.382Z,15.75
2017-10-11T11:09:29.218Z,15.69
2017-10-11T11:10:38.051Z,15.71
2017-10-11T11:11:47.222Z,15.71
2017-10-11T11:12:56.063Z,15.67
2017-10-11T11:14:04.898Z,15.67
2017-10-11T11:15:13.734Z,15.67
2017-10-11T11:16:22.568Z,15.64
2017-10-11T11:17:31.407Z,15.6
2017-10-11T11:18:40.239Z,15.56
2017-10-11T11:19:49.076Z,15.57
2017-10-11T11:20:57.911Z,15.46
2017-10-11T11:22:06.741Z,15.46
2017-10-11T11:23:15.579Z,15.5
2017-10-11T11:24:24.418Z,15.47
2017-10-11T11:25:33.258Z,15.53
2017-10-11T11:26:42.092Z,15.46
2017-10-11T11:27:50.923Z,15.46
2017-10-11T11:28:59.757Z,15.5
2017-10-11T11:30:08.594Z,15.6
2017-10-11T11:31:17.436Z,15.59
2017-10-11T11:32:26.266Z,15.47
2017-10-11T11:33:35.103Z,15.5
2017-10-11T11:34:43.935Z,15.49
2017-10-11T11:35:52.774Z,15.47
2017-10-11T11:37:01.608Z,15.49
2017-10-11T11:38:10.444Z,15.47
2017-10-11T11:39:19.272Z,15.49
2017-10-11T11:40:28.104Z,15.43
2017-10-11T11:41:37.285Z,15.53
2017-10-11T11:42:46.120Z,15.47
2017-10-11T11:43:54.960Z,15.46
2017-10-11T11:45:03.793Z,15.35
2017-10-11T11:46:12.637Z,15.39
2017-10-11T11:47:21.463Z,15.38
2017-10-11T11:48:30.300Z,15.49
2017-10-11T11:49:39.131Z,15.49
2017-10-11T11:50:47.974Z,15.59
2017-10-11T11:51:56.816Z,15.57
2017-10-11T11:53:05.646Z,15.56
2017-10-11T11:54:14.481Z,15.59
2017-10-11T11:55:23.317Z,15.47
2017-10-11T11:56:32.162Z,15.46
2017-10-11T11:57:41.329Z,15.54
2017-10-11T11:58:50.175Z,15.59
2017-10-11T11:59:58.994Z,15.54
2017-10-11T12:01:07.829Z,15.69
2017-10-11T12:02:16.672Z,15.74
2017-10-11T12:03:25.503Z,15.83
2017-10-11T12:04:34.342Z,15.86
2017-10-11T12:05:43.177Z,15.8
2017-10-11T12:06:52.012Z,15.89
2017-10-11T12:08:00.847Z,15.93
2017-10-11T12:09:09.684Z,15.87
2017-10-11T12:10:18.519Z,16
2017-10-11T12:11:27.354Z,15.9
2017-10-11T12:12:36.189Z,15.97
2017-10-11T12:13:45.020Z,16.07
2017-10-11T12:14:53.862Z,16.05
2017-10-11T12:16:02.699Z,16.05
2017-10-11T12:17:11.533Z,16.04
2017-10-11T12:18:20.368Z,16.01
2017-10-11T12:19:29.210Z,16.04
2017-10-11T12:20:38.381Z,16.02
2017-10-11T12:21:47.565Z,16.01
2017-10-11T12:22:56.399Z,16
2017-10-11T12:24:05.238Z,15.87
2017-10-11T12:25:14.072Z,15.94
2017-10-11T12:26:22.908Z,15.96
2017-10-11T12:27:31.745Z,16.01
2017-10-11T12:28:40.575Z,16.02
2017-10-11T12:29:49.410Z,16
2017-10-11T12:30:58.260Z,16
2017-10-11T12:32:07.423Z,15.93
2017-10-11T12:33:16.266Z,16.04
2017-10-11T12:34:25.099Z,15.97
2017-10-11T12:35:33.933Z,15.92
2017-10-11T12:36:42.776Z,16
2017-10-11T12:37:51.958Z,16.01
2017-10-11T12:39:00.791Z,15.9
2017-10-11T12:40:09.628Z,16
2017-10-11T12:41:18.468Z,16
2017-10-11T12:42:27.302Z,16
2017-10-11T12:43:36.474Z,15.96
2017-10-11T12:44:45.304Z,15.94
2017-10-11T12:45:54.147Z,16
2017-10-11T12:47:02.989Z,16.04
2017-10-11T12:48:11.824Z,16.01
2017-10-11T12:49:20.992Z,16.05
2017-10-11T12:50:29.821Z,16.08
2017-10-11T12:51:38.654Z,16.11
2017-10-11T12:52:47.490Z,16.09
2017-10-11T12:53:56.330Z,16.09
2017-10-11T12:55:05.161Z,16.09
2017-10-11T12:56:14.334Z,16.09
2017-10-11T12:57:23.161Z,16.05
2017-10-11T12:58:32.001Z,16.12
2017-10-11T12:59:40.840Z,16.09
2017-10-11T13:00:49.676Z,16.12
2017-10-11T13:01:58.509Z,16.12
2017-10-11T13:03:07.348Z,16.11
2017-10-11T13:04:16.185Z,16.17
2017-10-11T13:05:25.017Z,16.08
2017-10-11T13:06:33.854Z,16.21
2017-10-11T13:07:42.689Z,16.14
2017-10-11T13:08:51.522Z,16.08
2017-10-11T13:10:00.365Z,16.05
2017-10-11T13:11:09.197Z,16.09
2017-10-11T13:12:18.035Z,16.15
2017-10-11T13:13:27.206Z,16.07
2017-10-11T13:14:36.045Z,16.15
2017-10-11T13:15:45.226Z,16.07
2017-10-11T13:16:54.065Z,16.17
2017-10-11T13:18:02.894Z,16.15
2017-10-11T13:19:11.728Z,16.17
2017-10-11T13:20:20.565Z,16.15
2017-10-11T13:21:29.401Z,16.15
2017-10-11T13:22:38.245Z,16.08
2017-10-11T13:23:47.083Z,16.12
2017-10-11T13:24:55.917Z,16.2
2017-10-11T13:26:04.748Z,16.09
2017-10-11T13:27:13.585Z,16.14
2017-10-11T13:28:22.427Z,16.21
2017-10-11T13:29:31.595Z,16.15
2017-10-11T13:30:40.427Z,16.14
2017-10-11T13:31:49.265Z,16.14
2017-10-11T13:32:58.101Z,16.17
2017-10-11T13:34:06.936Z,16.25
2017-10-11T13:35:15.774Z,16.25
2017-10-11T13:36:24.610Z,16.27
2017-10-11T13:37:33.442Z,16.35
2017-10-11T13:38:42.285Z,16.3
2017-10-11T13:39:51.116Z,16.23
2017-10-11T13:40:59.957Z,16.15
2017-10-11T13:42:08.794Z,16.14
2017-10-11T13:43:17.961Z,16.15
2017-10-11T13:44:26.795Z,16.2
2017-10-11T13:45:35.641Z,16.2
2017-10-11T13:46:44.476Z,16.17
2017-10-11T13:47:53.312Z,16.2
2017-10-11T13:49:02.153Z,16.17
2017-10-11T13:50:10.983Z,16.2
2017-10-11T13:51:19.822Z,16.11
2017-10-11T13:52:28.656Z,16.02
2017-10-11T13:53:37.494Z,16.07
2017-10-11T13:54:46.328Z,16.11
2017-10-11T13:55:55.167Z,16.08
2017-10-11T13:57:04.003Z,16.11
2017-10-11T13:58:12.838Z,16.04
2017-10-11T13:59:21.674Z,16.01
2017-10-11T14:00:30.510Z,16.01
2017-10-11T14:01:39.347Z,15.96
2017-10-11T14:02:48.182Z,16.04
2017-10-11T14:03:57.021Z,16.04
2017-10-11T14:05:05.859Z,16.05
2017-10-11T14:06:14.694Z,16
2017-10-11T14:07:23.535Z,16.04
2017-10-11T14:08:32.368Z,16.02
2017-10-11T14:09:41.207Z,16.01
2017-10-11T14:10:50.034Z,15.93
2017-10-11T14:11:58.874Z,16.02
2017-10-11T14:13:07.704Z,15.9
2017-10-11T14:14:16.546Z,16.04
2017-10-11T14:15:25.387Z,15.89
2017-10-11T14:16:34.224Z,16.01
2017-10-11T14:17:43.061Z,16.02
2017-10-11T14:18:51.897Z,15.94
2017-10-11T14:20:00.733Z,15.97
2017-10-11T14:21:09.565Z,15.89
2017-10-11T14:22:18.402Z,15.86
2017-10-11T14:23:27.238Z,15.9
2017-10-11T14:24:36.083Z,15.89
2017-10-11T14:25:44.913Z,15.89
2017-10-11T14:26:53.749Z,15.87
2017-10-11T14:28:02.587Z,15.89
2017-10-11T14:29:11.422Z,15.84
2017-10-11T14:30:20.257Z,15.84
2017-10-11T14:31:29.092Z,15.87
2017-10-11T14:32:37.923Z,15.92
2017-10-11T14:33:46.765Z,15.9
2017-10-11T14:34:55.597Z,15.9
2017-10-11T14:36:04.438Z,15.96
2017-10-11T14:37:13.297Z,15.89
2017-10-11T14:38:22.139Z,15.89
2017-10-11T14:39:30.967Z,15.89
2017-10-11T14:40:39.808Z,15.87
2017-10-11T14:41:48.642Z,15.86
2017-10-11T14:42:57.479Z,15.96
2017-10-11T14:44:06.315Z,15.97
2017-10-11T14:45:15.151Z,16.04
2017-10-11T14:46:23.984Z,15.96
2017-10-11T14:47:32.824Z,16.04
2017-10-11T14:48:41.654Z,16.01
2017-10-11T14:49:50.491Z,16.11